Time;durP1;ratioP1;P1;durP2;ratioP2;P2;SDS_P1;SDS_P2;PMS_P1;PMS_P2;Temp;Humidity;BMP_temperature;BMP_pressure;BME280_temperature;BME280_humidity;BME280_pressure;Samples;Min_cycle;Max_cycle;Signal;HPM_P1;HPM_P2
2022/01/24 00:03:21;;;;;;;188.80;78.70;;;-4.20;99.90;;;;;;10437403;28;20059;-81
2022/01/24 00:08:22;;;;;;;254.87;97.63;;;-4.20;99.90;;;;;;10448869;28;20044;-81
2022/01/24 00:29:19;;;;;;;235.97;97.50;;;-4.20;99.90;;;;;;10449314;28;20080;-82
2022/01/24 00:34:23;;;;;;;292.37;120.20;;;-4.20;99.90;;;;;;10448552;28;20382;-83
2022/01/24 00:39:24;;;;;;;378.90;155.10;;;-4.10;99.90;;;;;;10448901;28;20029;-82
2022/01/24 00:54:44;;;;;;;268.43;113.40;;;-3.70;99.90;;;;;;10448143;28;20071;-84
2022/01/24 00:59:45;;;;;;;270.47;111.60;;;-3.60;99.90;;;;;;10448480;28;20040;-81
2022/01/24 01:05:04;;;;;;;275.27;113.40;;;-3.50;99.90;;;;;;10447649;28;20052;-82
2022/01/24 01:21:07;;;;;;;316.00;128.67;;;-3.40;99.90;;;;;;10455449;28;20041;-81
2022/01/24 01:26:17;;;;;;;273.07;112.53;;;-3.40;99.90;;;;;;10455806;28;20056;-82
2022/01/24 01:31:29;;;;;;;255.20;112.00;;;-3.40;99.90;;;;;;10454965;28;20029;-82
2022/01/24 01:52:37;;;;;;;194.03;85.47;;;-3.70;99.90;;;;;;10455148;28;20048;-81
2022/01/24 01:57:38;;;;;;;186.13;80.93;;;-3.80;99.90;;;;;;10454462;28;20029;-82
2022/01/24 02:02:40;;;;;;;204.43;89.13;;;-3.70;99.90;;;;;;10454544;28;20468;-81
2022/01/24 02:07:50;;;;;;;191.47;80.23;;;-3.80;99.90;;;;;;10435241;28;20041;-82
2022/01/24 02:12:53;;;;;;;179.63;74.13;;;-3.90;99.90;;;;;;10454158;28;20094;-84
2022/01/24 02:28:25;;;;;;;234.07;104.57;;;-3.80;99.90;;;;;;10453085;28;20052;-81
2022/01/24 02:33:25;;;;;;;182.80;77.53;;;-3.70;99.90;;;;;;10451802;28;20069;-81
2022/01/24 02:38:54;;;;;;;157.27;67.50;;;-3.70;99.90;;;;;;10453030;28;20075;-81
2022/01/24 02:49:35;;;;;;;138.55;60.30;;;-3.60;99.90;;;;;;10295543;28;20146;-82
2022/01/24 02:54:38;;;;;;;219.57;90.10;;;-3.70;99.90;;;;;;10452392;28;20091;-81
2022/01/24 02:59:39;;;;;;;223.60;95.90;;;-3.80;99.90;;;;;;10452809;28;20025;-81
2022/01/24 03:04:40;;;;;;;244.93;103.47;;;-4.00;99.90;;;;;;10451804;28;20079;-81
2022/01/24 03:09:43;;;;;;;253.33;107.47;;;-4.20;99.90;;;;;;10451306;28;20046;-83
2022/01/24 03:14:43;;;;;;;238.53;101.33;;;-4.20;99.90;;;;;;10451262;28;20087;-85
2022/01/24 03:19:44;;;;;;;236.37;102.57;;;-4.30;99.90;;;;;;10450911;28;20079;-81
2022/01/24 03:24:45;;;;;;;193.23;88.13;;;-4.30;99.90;;;;;;10450996;28;20079;-81
2022/01/24 03:29:46;;;;;;;193.83;82.50;;;-4.40;99.90;;;;;;10451085;28;20029;-81
2022/01/24 03:34:46;;;;;;;211.83;87.73;;;-4.50;99.90;;;;;;10449231;28;20060;-81
2022/01/24 03:39:47;;;;;;;222.30;89.43;;;-4.60;99.90;;;;;;10450595;28;20029;-83
2022/01/24 03:44:51;;;;;;;210.10;86.83;;;-4.70;99.90;;;;;;10450308;28;20157;-81
2022/01/24 03:49:53;;;;;;;208.73;83.17;;;-4.80;99.90;;;;;;10449860;28;20116;-82
2022/01/24 03:54:53;;;;;;;207.77;84.20;;;-4.90;99.90;;;;;;10449957;28;20072;-81
2022/01/24 03:59:54;;;;;;;192.07;79.93;;;-5.00;99.90;;;;;;10448916;28;20503;-80
2022/01/24 04:04:54;;;;;;;174.83;70.70;;;-4.90;99.90;;;;;;10431565;28;20029;-77
2022/01/24 04:09:57;;;;;;;143.20;57.00;;;-5.00;99.90;;;;;;10448629;28;20090;-81
2022/01/24 04:15:11;;;;;;;120.80;48.37;;;-5.10;99.90;;;;;;10431085;28;20044;-79
2022/01/24 04:25:32;;;;;;;152.87;63.50;;;-5.20;99.90;;;;;;10447885;28;20045;-82
2022/01/24 04:30:32;;;;;;;137.03;55.67;;;-5.40;99.90;;;;;;10448411;28;20440;-79
2022/01/24 04:35:33;;;;;;;160.13;65.93;;;-5.40;99.90;;;;;;10440738;28;20052;-79
2022/01/24 04:40:33;;;;;;;154.07;66.10;;;-5.30;99.90;;;;;;10449419;28;20124;-81
2022/01/24 04:45:57;;;;;;;173.93;73.03;;;-5.40;99.90;;;;;;10447975;28;20380;-79
2022/01/24 04:51:14;;;;;;;187.67;79.00;;;-5.40;99.90;;;;;;10453499;28;20123;-79
2022/01/24 04:56:15;;;;;;;189.17;78.60;;;-5.60;99.90;;;;;;10456052;28;20033;-86
2022/01/24 05:01:16;;;;;;;168.67;71.93;;;-5.70;99.90;;;;;;10437772;28;20029;-82
2022/01/24 05:06:16;;;;;;;208.27;82.93;;;-5.70;99.90;;;;;;10452592;28;20047;-79
2022/01/24 05:11:23;;;;;;;233.73;95.90;;;-5.70;99.90;;;;;;10456605;28;20025;-82
2022/01/24 05:23:26;;;;;;;258.20;105.97;;;-5.90;99.90;;;;;;10449935;28;20036;-84
2022/01/24 05:27:06;;;;;;;249.10;104.90;;;-6.00;99.90;;;;;;10455749;28;20127;-82
2022/01/24 05:32:08;;;;;;;289.00;118.03;;;-6.10;99.90;;;;;;10456342;28;20083;-83
2022/01/24 05:37:09;;;;;;;267.17;112.87;;;-6.20;99.90;;;;;;10450718;28;20136;-81
2022/01/24 05:42:09;;;;;;;280.37;112.80;;;-6.30;99.90;;;;;;10440075;28;20039;-82
2022/01/24 05:47:10;;;;;;;279.97;116.17;;;-6.40;99.90;;;;;;10414119;28;20033;-80
2022/01/24 05:52:11;;;;;;;302.07;126.40;;;-6.50;99.90;;;;;;10414172;28;20036;-80
2022/01/24 05:57:12;;;;;;;242.97;108.33;;;-6.60;99.90;;;;;;10414604;28;20018;-81
2022/01/24 06:02:13;;;;;;;248.43;106.37;;;-6.70;99.90;;;;;;10395039;28;20026;-80
2022/01/24 06:07:14;;;;;;;237.67;100.23;;;-6.70;99.90;;;;;;10413158;28;20388;-82
2022/01/24 06:12:15;;;;;;;247.03;100.03;;;-6.80;99.90;;;;;;10413666;28;20373;-80
2022/01/24 06:17:17;;;;;;;223.10;92.90;;;-6.90;99.90;;;;;;10395394;28;20401;-83
2022/01/24 06:22:20;;;;;;;201.17;88.20;;;-6.90;99.90;;;;;;10412825;28;20409;-80
2022/01/24 06:27:20;;;;;;;380.77;127.57;;;-6.90;99.90;;;;;;10413229;28;20095;-84
2022/01/24 06:32:21;;;;;;;469.47;169.97;;;-6.80;99.90;;;;;;10412774;28;20504;-83
2022/01/24 06:37:21;;;;;;;734.13;258.33;;;-6.80;99.90;;;;;;10411852;28;20540;-81
2022/01/24 06:42:23;;;;;;;336.90;113.17;;;-6.80;99.90;;;;;;10411808;28;20489;-84
2022/01/24 06:47:23;;;;;;;151.10;59.10;;;-6.90;99.90;;;;;;10412094;28;20453;-81
2022/01/24 06:52:24;;;;;;;165.53;67.87;;;-6.80;99.90;;;;;;10412063;28;20144;-82
2022/01/24 06:57:25;;;;;;;208.17;89.13;;;-6.80;99.90;;;;;;10412344;28;20065;-80
2022/01/24 07:02:25;;;;;;;244.80;104.23;;;-6.80;99.90;;;;;;10411339;28;20043;-82
2022/01/24 07:07:26;;;;;;;206.67;87.53;;;-6.70;99.90;;;;;;10410854;28;20477;-81
2022/01/24 07:12:27;;;;;;;184.27;75.73;;;-6.60;99.90;;;;;;10410467;28;20466;-83
2022/01/24 07:17:49;;;;;;;141.47;60.10;;;-6.50;99.90;;;;;;10410940;28;20138;-80
2022/01/24 07:22:49;;;;;;;165.50;65.53;;;-6.40;99.90;;;;;;10410705;28;20484;-81
2022/01/24 07:27:50;;;;;;;182.87;69.20;;;-6.30;99.90;;;;;;10410361;28;20077;-81
2022/01/24 07:32:51;;;;;;;211.77;82.63;;;-6.20;99.90;;;;;;10413857;28;20056;-81
2022/01/24 07:37:51;;;;;;;249.83;88.77;;;-6.10;99.90;;;;;;10432372;28;20057;-82
2022/01/24 07:47:53;;;;;;;302.13;126.90;;;-5.80;99.90;;;;;;10422716;28;20037;-80
2022/01/24 07:52:59;;;;;;;265.23;117.70;;;-5.50;99.90;;;;;;10443049;28;20052;-81
2022/01/24 07:58:00;;;;;;;228.17;109.33;;;-5.20;99.90;;;;;;10450628;28;20052;-81
2022/01/24 08:03:00;;;;;;;302.37;148.77;;;-4.90;99.90;;;;;;10450236;28;20052;-81
2022/01/24 08:08:01;;;;;;;274.50;116.43;;;-4.50;99.90;;;;;;10450318;28;20794;-81
2022/01/24 08:13:02;;;;;;;358.00;149.47;;;-4.00;99.90;;;;;;10449794;28;20033;-81
2022/01/24 08:18:03;;;;;;;204.87;80.60;;;-3.50;99.90;;;;;;10449457;28;20025;-81
2022/01/24 08:23:04;;;;;;;281.20;129.70;;;-3.00;99.90;;;;;;10449393;28;20078;-80
2022/01/24 08:28:05;;;;;;;205.10;78.27;;;-2.50;99.90;;;;;;10450393;28;20053;-81
2022/01/24 08:33:06;;;;;;;278.13;120.70;;;-2.00;99.90;;;;;;10436791;28;20033;-80
2022/01/24 08:38:07;;;;;;;211.17;90.87;;;-1.50;99.90;;;;;;10405872;28;20034;-83
2022/01/24 08:43:07;;;;;;;225.27;93.83;;;-1.00;99.90;;;;;;10408852;28;20100;-81
2022/01/24 08:48:08;;;;;;;603.60;259.97;;;-0.70;99.90;;;;;;10407860;28;20109;-82
2022/01/24 08:53:10;;;;;;;157.60;69.73;;;-0.50;99.90;;;;;;10404505;28;20480;-81
2022/01/24 08:58:13;;;;;;;327.87;133.83;;;-0.30;99.90;;;;;;10404158;28;20040;-81
2022/01/24 09:03:14;;;;;;;326.70;134.23;;;-0.20;99.90;;;;;;10405615;28;20076;-82
2022/01/24 09:08:15;;;;;;;281.33;119.20;;;0.00;99.90;;;;;;10390175;28;20040;-81
2022/01/24 09:13:18;;;;;;;116.73;47.60;;;0.40;99.90;;;;;;10407957;28;20041;-81
2022/01/24 09:18:19;;;;;;;105.67;46.40;;;0.60;99.90;;;;;;10389607;28;20029;-81
2022/01/24 09:23:22;;;;;;;241.53;102.87;;;1.00;99.90;;;;;;10420949;28;20079;-80
2022/01/24 09:28:22;;;;;;;114.90;51.10;;;1.40;99.90;;;;;;10426930;28;20461;-83
2022/01/24 09:33:25;;;;;;;237.27;106.83;;;1.70;99.90;;;;;;10404813;28;20037;-81
2022/01/24 09:38:31;;;;;;;161.37;78.23;;;1.90;99.90;;;;;;10412211;28;20036;-80
2022/01/24 09:43:32;;;;;;;145.33;68.03;;;2.00;99.90;;;;;;10430565;28;21056;-82
2022/01/24 09:48:33;;;;;;;101.20;47.20;;;2.10;99.90;;;;;;10444265;28;20044;-82
2022/01/24 09:53:34;;;;;;;135.57;66.27;;;1.80;99.90;;;;;;10430022;28;20034;-81
2022/01/24 09:58:36;;;;;;;114.63;56.60;;;1.70;99.90;;;;;;10436357;28;20036;-80
2022/01/24 10:03:37;;;;;;;161.33;83.83;;;1.60;99.90;;;;;;10437870;28;20074;-81
2022/01/24 10:08:38;;;;;;;105.27;48.10;;;1.50;99.90;;;;;;10412469;28;20534;-81
2022/01/24 10:19:20;;;;;;;102.40;45.10;;;1.50;99.90;;;;;;10439671;28;20045;-81
2022/01/24 10:24:26;;;;;;;130.93;53.90;;;1.50;99.90;;;;;;10453887;28;20032;-80
2022/01/24 10:29:27;;;;;;;96.53;44.10;;;1.40;99.90;;;;;;10454198;28;20496;-82
2022/01/24 10:34:35;;;;;;;80.90;38.83;;;1.40;99.90;;;;;;10453944;28;20045;-85
2022/01/24 10:50:39;;;;;;;124.10;75.13;;;1.40;99.90;;;;;;10412377;28;20033;-81
2022/01/24 10:55:41;;;;;;;207.17;145.30;;;1.40;99.90;;;;;;10410179;28;20029;-81
2022/01/24 11:00:43;;;;;;;116.60;60.47;;;1.30;99.90;;;;;;10410455;28;20025;-83
2022/01/24 11:05:44;;;;;;;122.70;54.13;;;1.30;99.90;;;;;;10410369;28;20112;-82
2022/01/24 11:10:47;;;;;;;73.73;34.90;;;1.30;99.90;;;;;;10411157;28;20022;-81
2022/01/24 11:15:55;;;;;;;128.97;54.43;;;1.40;99.90;;;;;;10409211;28;20037;-82
2022/01/24 11:21:02;;;;;;;101.50;44.87;;;1.40;99.90;;;;;;10410678;28;20392;-81
2022/01/24 11:26:04;;;;;;;84.33;38.47;;;1.60;99.90;;;;;;10429708;28;20516;-81
2022/01/24 11:31:19;;;;;;;89.93;38.23;;;1.70;99.90;;;;;;10451147;28;20029;-81
2022/01/24 11:36:39;;;;;;;73.37;35.67;;;1.70;99.90;;;;;;10448613;28;20037;-81
2022/01/24 11:41:41;;;;;;;89.70;42.63;;;1.60;99.90;;;;;;10392017;28;20052;-80
2022/01/24 11:46:55;;;;;;;59.03;26.67;;;1.80;99.90;;;;;;10437542;28;20029;-79
2022/01/24 11:52:14;;;;;;;57.37;24.93;;;1.80;99.90;;;;;;10432965;28;20108;-81
2022/01/24 11:57:16;;;;;;;56.50;27.17;;;2.00;99.90;;;;;;10449329;28;20048;-81
2022/01/24 12:02:24;;;;;;;92.77;44.77;;;2.10;99.90;;;;;;10450702;28;20032;-83
2022/01/24 12:07:30;;;;;;;71.40;36.43;;;2.20;99.90;;;;;;10450487;28;20037;-81
2022/01/24 12:12:50;;;;;;;67.80;34.15;;;2.30;99.90;;;;;;10449880;28;20040;-81
2022/01/24 12:17:51;;;;;;;53.37;25.87;;;2.40;99.90;;;;;;10449553;28;20027;-81
2022/01/24 12:22:52;;;;;;;51.60;24.17;;;2.40;99.90;;;;;;10414371;28;20030;-81
2022/01/24 12:28:19;;;;;;;47.03;22.77;;;2.30;99.90;;;;;;10408449;28;20049;-80
2022/01/24 12:33:28;;;;;;;;;;;2.30;99.90;;;;;;10409068;28;20056;-80
2022/01/24 12:38:49;;;;;;;192.53;76.20;;;2.30;99.90;;;;;;10408000;28;19916;-80
2022/01/24 12:55:12;;;;;;;72.78;30.88;;;2.00;99.90;;;;;;10406821;28;20077;-82
2022/01/24 13:00:28;;;;;;;101.07;40.57;;;2.10;99.90;;;;;;10423576;28;20057;-81
2022/01/24 13:11:10;;;;;;;136.73;57.27;;;2.00;99.90;;;;;;10423275;28;20408;-80
2022/01/24 13:22:00;;;;;;;155.07;62.47;;;1.90;99.90;;;;;;10391781;28;20515;-79
2022/01/24 13:27:05;;;;;;;73.22;37.42;;;1.80;99.90;;;;;;10427003;28;20080;-80
2022/01/24 13:32:08;;;;;;;53.20;26.77;;;1.80;99.90;;;;;;10435502;28;20059;-80
2022/01/24 13:37:09;;;;;;;250.03;96.40;;;1.80;99.90;;;;;;10433311;28;20075;-80
2022/01/24 13:42:18;;;;;;;68.07;29.17;;;1.80;99.90;;;;;;10437098;28;20806;-80
2022/01/24 13:47:19;;;;;;;78.67;36.77;;;1.70;99.90;;;;;;10452866;28;20029;-81
2022/01/24 13:52:21;;;;;;;130.10;64.60;;;1.70;99.90;;;;;;10454559;28;20051;-82
2022/01/24 13:57:21;;;;;;;140.90;67.20;;;1.70;99.90;;;;;;10454452;28;20025;-81
2022/01/24 14:02:32;;;;;;;413.13;198.97;;;1.70;99.90;;;;;;10454207;28;20029;-80
2022/01/24 14:07:37;;;;;;;173.17;81.47;;;1.60;99.90;;;;;;10429502;28;20104;-82
2022/01/24 14:12:51;;;;;;;181.10;92.17;;;1.60;99.90;;;;;;10426956;28;20052;-80
2022/01/24 14:23:35;;;;;;;91.30;36.77;;;1.40;99.90;;;;;;10451659;28;20037;-79
2022/01/24 14:28:35;;;;;;;63.23;28.17;;;1.30;99.90;;;;;;10451113;28;20175;-80
2022/01/24 14:33:36;;;;;;;75.20;32.70;;;1.10;99.90;;;;;;10449776;28;20047;-80
2022/01/24 14:38:43;;;;;;;76.27;33.07;;;1.10;99.90;;;;;;10434581;28;20037;-81
2022/01/24 14:49:23;;;;;;;169.63;72.97;;;1.10;99.90;;;;;;10449170;28;20041;-82
2022/01/24 14:54:26;;;;;;;228.03;84.77;;;1.00;99.90;;;;;;10451187;28;20157;-84
2022/01/24 14:59:28;;;;;;;116.07;47.50;;;0.90;99.90;;;;;;10449365;28;20048;-81
2022/01/24 15:04:29;;;;;;;340.50;112.63;;;0.80;99.90;;;;;;10407793;28;20040;-81
2022/01/24 15:09:31;;;;;;;63.93;26.73;;;0.70;99.90;;;;;;10445824;28;20031;-81
2022/01/24 15:14:40;;;;;;;87.00;39.90;;;0.60;99.90;;;;;;10445438;28;20037;-80
2022/01/24 15:30:16;;;;;;;131.93;52.97;;;0.40;99.90;;;;;;10451141;28;20033;-79
2022/01/24 15:35:17;;;;;;;280.77;122.43;;;0.30;99.90;;;;;;10431330;28;20733;-81
2022/01/24 15:40:18;;;;;;;300.00;126.97;;;0.30;99.90;;;;;;10449115;28;20029;-79
2022/01/24 15:45:38;;;;;;;634.07;291.10;;;0.30;99.90;;;;;;10446893;28;20086;-80
2022/01/24 15:50:40;;;;;;;413.40;175.63;;;0.20;99.90;;;;;;10450005;28;20691;-79
2022/01/24 15:55:50;;;;;;;141.13;62.33;;;0.20;99.90;;;;;;10444615;28;20052;-79
2022/01/24 16:00:51;;;;;;;292.30;126.87;;;0.20;99.90;;;;;;10448294;28;20112;-81
2022/01/24 16:05:52;;;;;;;180.07;84.57;;;0.10;99.90;;;;;;10450254;28;20047;-81
2022/01/24 16:10:53;;;;;;;158.30;75.97;;;0.10;99.90;;;;;;10430248;28;20085;-81
2022/01/24 16:15:53;;;;;;;135.17;64.30;;;0.10;99.90;;;;;;10426719;28;20067;-81
2022/01/24 16:25:59;;;;;;;323.07;164.10;;;0.00;99.90;;;;;;10447227;28;20067;-80
2022/01/24 16:31:03;;;;;;;617.17;241.83;;;0.00;99.90;;;;;;10446809;28;20040;-82
2022/01/24 16:36:06;;;;;;;912.43;372.40;;;0.00;99.90;;;;;;10446456;28;20550;-81
2022/01/24 16:41:22;;;;;;;543.43;223.23;;;-0.10;99.90;;;;;;10430606;28;20036;-82
2022/01/24 16:52:14;;;;;;;318.30;109.93;;;-0.10;99.90;;;;;;10423389;28;20037;-80
2022/01/24 16:57:18;;;;;;;732.30;269.93;;;-0.20;99.90;;;;;;10423762;28;20037;-84
2022/01/24 17:02:30;;;;;;;412.50;144.63;;;-0.20;99.90;;;;;;10433423;28;20025;-82
2022/01/24 17:07:34;;;;;;;341.83;127.00;;;-0.30;99.90;;;;;;10397005;28;20068;-81
2022/01/24 17:12:50;;;;;;;204.50;82.17;;;-0.30;99.90;;;;;;10416951;28;20047;-80
2022/01/24 17:17:50;;;;;;;372.70;146.52;;;-0.30;99.90;;;;;;10399280;28;20457;-82
2022/01/24 17:23:19;;;;;;;202.37;84.73;;;-0.40;99.90;;;;;;10436894;28;20129;-82
2022/01/24 17:28:20;;;;;;;590.77;266.20;;;-0.40;99.90;;;;;;10428391;28;20123;-83
2022/01/24 17:33:28;;;;;;;313.07;117.57;;;-0.30;99.90;;;;;;10421435;28;20053;-83
2022/01/24 17:38:29;;;;;;;388.33;177.47;;;-0.30;99.90;;;;;;10398876;28;20409;-81
2022/01/24 17:43:30;;;;;;;331.57;132.77;;;-0.30;99.90;;;;;;10396083;28;20022;-84
2022/01/24 17:48:31;;;;;;;380.47;134.60;;;-0.30;99.90;;;;;;10445611;28;20036;-80
2022/01/24 18:05:33;;;;;;;184.73;84.03;;;-0.30;99.90;;;;;;10428179;28;20484;-82
2022/01/24 18:10:33;;;;;;;182.37;81.10;;;-0.30;99.90;;;;;;10418497;28;20033;-83
2022/01/24 18:21:32;;;;;;;176.38;82.97;;;-0.30;99.90;;;;;;10435048;28;20041;-83
2022/01/24 18:32:30;;;;;;;162.68;75.55;;;-0.30;99.90;;;;;;10433186;28;20044;-83
2022/01/24 18:37:30;;;;;;;304.47;121.10;;;-0.30;99.90;;;;;;10408141;28;20041;-83
2022/01/24 18:42:34;;;;;;;176.83;78.37;;;-0.30;99.90;;;;;;10419505;28;20597;-83
2022/01/24 18:47:41;;;;;;;165.93;78.17;;;-0.40;99.90;;;;;;10435888;28;20025;-84
2022/01/24 18:52:41;;;;;;;149.73;70.07;;;-0.30;99.90;;;;;;10419070;28;20038;-83
2022/01/24 18:58:30;;;;;;;155.43;73.30;;;-0.40;99.90;;;;;;10428241;28;20025;-86
2022/01/24 19:03:31;;;;;;;178.50;74.70;;;-0.30;99.90;;;;;;10404385;28;20111;-85
2022/01/24 19:08:31;;;;;;;177.57;85.43;;;-0.40;99.90;;;;;;10414986;28;20032;-83
2022/01/24 19:13:36;;;;;;;156.13;70.93;;;-0.30;99.90;;;;;;10434419;28;20041;-84
2022/01/24 19:18:46;;;;;;;161.03;70.07;;;-0.40;99.90;;;;;;10415245;28;20032;-80
2022/01/24 19:23:48;;;;;;;188.43;80.73;;;-0.40;99.90;;;;;;10426694;28;20033;-81
2022/01/24 19:28:52;;;;;;;191.83;83.07;;;-0.40;99.90;;;;;;10449746;28;20113;-82
2022/01/24 19:33:53;;;;;;;179.07;76.87;;;-0.40;99.90;;;;;;10446241;28;20428;-82
2022/01/24 19:38:54;;;;;;;196.97;95.10;;;-0.30;99.90;;;;;;10448555;28;20488;-83
2022/01/24 19:43:54;;;;;;;151.73;67.97;;;-0.40;99.90;;;;;;10421912;28;20044;-83
2022/01/24 19:48:55;;;;;;;153.73;70.30;;;-0.40;99.90;;;;;;10440435;28;20033;-83
2022/01/24 19:53:57;;;;;;;199.67;84.40;;;-0.40;99.90;;;;;;10443122;28;20037;-83
2022/01/24 19:59:10;;;;;;;211.30;90.73;;;-0.30;99.90;;;;;;10409815;28;20120;-84
2022/01/24 20:04:10;;;;;;;176.10;78.50;;;-0.30;99.90;;;;;;10438264;28;20068;-83
2022/01/24 20:09:11;;;;;;;187.27;82.67;;;-0.30;99.90;;;;;;10448251;28;20119;-83
2022/01/24 20:14:12;;;;;;;162.70;74.47;;;-0.30;99.90;;;;;;10450496;28;20539;-84
2022/01/24 20:19:12;;;;;;;473.87;187.33;;;-0.30;99.90;;;;;;10434120;28;20037;-84
2022/01/24 20:24:13;;;;;;;286.50;114.10;;;-0.30;99.90;;;;;;10430766;28;20032;-85
2022/01/24 20:29:19;;;;;;;357.63;137.23;;;-0.30;99.90;;;;;;10442348;28;20141;-83
2022/01/24 20:34:20;;;;;;;356.25;128.63;;;-0.20;99.90;;;;;;10426249;28;20033;-85
2022/01/24 20:39:21;;;;;;;254.20;101.27;;;-0.20;99.90;;;;;;10446517;28;20183;-82
2022/01/24 20:44:22;;;;;;;258.47;105.87;;;-0.20;99.90;;;;;;10445963;28;20048;-83
2022/01/24 20:49:26;;;;;;;246.27;102.03;;;-0.20;99.90;;;;;;10445693;28;20013;-84
2022/01/24 20:54:27;;;;;;;423.17;161.70;;;-0.20;99.90;;;;;;10441852;28;20059;-82
2022/01/24 20:59:27;;;;;;;231.80;98.77;;;-0.20;99.90;;;;;;10446780;28;20051;-82
2022/01/24 21:04:28;;;;;;;202.07;91.40;;;-0.10;99.90;;;;;;10446944;28;20097;-83
2022/01/24 21:09:29;;;;;;;217.20;97.67;;;-0.20;99.90;;;;;;10434990;28;20036;-83
2022/01/24 21:15:26;;;;;;;202.87;89.80;;;-0.10;99.90;;;;;;10401068;28;20431;-83
2022/01/24 21:26:27;;;;;;;215.70;104.87;;;-0.10;99.90;;;;;;10253759;28;20071;-81
2022/01/24 21:59:59;;;;;;;;;;;0.10;99.90;;;;;;10495780;28;20106;-84
2022/01/24 22:04:59;;;;;;;204.27;91.40;;;0.10;99.90;;;;;;10482713;28;19912;-83
2022/01/24 22:10:00;;;;;;;191.30;88.77;;;0.10;99.90;;;;;;10493953;28;20029;-82
2022/01/24 22:15:02;;;;;;;181.23;84.37;;;0.20;99.90;;;;;;10492627;28;20114;-83
2022/01/24 22:20:17;;;;;;;178.43;82.70;;;0.20;99.90;;;;;;10475981;28;20032;-83
2022/01/24 22:31:21;;;;;;;187.97;84.80;;;0.20;99.90;;;;;;11455003;22;20042;-83
2022/01/24 23:19:26;;;;;;;203.17;89.57;;;0.20;99.90;;;;;;10489914;28;20052;-82
2022/01/24 23:24:44;;;;;;;258.30;110.70;;;0.20;99.90;;;;;;10464062;28;20066;-83
2022/01/24 23:29:53;;;;;;;218.33;96.27;;;0.10;99.90;;;;;;10456433;28;20107;-84
2022/01/24 23:40:36;;;;;;;227.17;95.83;;;0.10;99.90;;;;;;10481852;28;19908;-83
2022/01/24 23:45:36;;;;;;;217.13;93.00;;;0.10;99.90;;;;;;10454774;28;20047;-84
2022/01/24 23:50:37;;;;;;;208.70;88.70;;;0.10;99.90;;;;;;10438694;28;20013;-84
2022/01/24 23:55:38;;;;;;;208.33;92.37;;;0.10;99.90;;;;;;10435798;28;20087;-82
